sensor_id;sensor_type;location;lat;lon;timestamp;temperature;humidity
14786;DHT22;7484;49.906;9.058;2023-04-01T00:00:35;10.10;99.90
14786;DHT22;7484;49.906;9.058;2023-04-01T00:03:02;10.10;99.90
14786;DHT22;7484;49.906;9.058;2023-04-01T00:05:28;10.20;99.90
14786;DHT22;7484;49.906;9.058;2023-04-01T00:07:55;10.20;99.90
14786;DHT22;7484;49.906;9.058;2023-04-01T00:10:22;10.20;99.90
14786;DHT22;7484;49.906;9.058;2023-04-01T00:12:49;10.20;99.90
14786;DHT22;7484;49.906;9.058;2023-04-01T00:15:15;10.20;99.90
14786;DHT22;7484;49.906;9.058;2023-04-01T00:17:43;10.20;99.90
14786;DHT22;7484;49.906;9.058;2023-04-01T00:20:11;10.20;99.90
14786;DHT22;7484;49.906;9.058;2023-04-01T00:22:39;10.20;99.90
14786;DHT22;7484;49.906;9.058;2023-04-01T00:25:07;10.20;99.90
14786;DHT22;7484;49.906;9.058;2023-04-01T00:27:34;10.20;99.90
14786;DHT22;7484;49.906;9.058;2023-04-01T00:30:00;10.30;99.90
14786;DHT22;7484;49.906;9.058;2023-04-01T00:32:27;10.20;99.90
14786;DHT22;7484;49.906;9.058;2023-04-01T00:34:55;10.20;99.90
14786;DHT22;7484;49.906;9.058;2023-04-01T00:37:24;10.10;99.90
14786;DHT22;7484;49.906;9.058;2023-04-01T00:39:51;10.10;99.90
14786;DHT22;7484;49.906;9.058;2023-04-01T00:42:18;10.10;99.90
14786;DHT22;7484;49.906;9.058;2023-04-01T00:44:46;10.20;99.90
14786;DHT22;7484;49.906;9.058;2023-04-01T00:47:14;10.20;99.90
14786;DHT22;7484;49.906;9.058;2023-04-01T00:49:43;10.20;99.90
14786;DHT22;7484;49.906;9.058;2023-04-01T00:52:16;10.30;99.90
14786;DHT22;7484;49.906;9.058;2023-04-01T00:54:46;10.10;99.90
14786;DHT22;7484;49.906;9.058;2023-04-01T00:57:18;10.10;99.90
14786;DHT22;7484;49.906;9.058;2023-04-01T00:59:48;10.10;99.90
14786;DHT22;7484;49.906;9.058;2023-04-01T01:02:16;10.10;99.90
14786;DHT22;7484;49.906;9.058;2023-04-01T01:04:44;10.20;99.90
14786;DHT22;7484;49.906;9.058;2023-04-01T01:07:20;10.20;99.90
14786;DHT22;7484;49.906;9.058;2023-04-01T01:09:56;10.10;99.90
14786;DHT22;7484;49.906;9.058;2023-04-01T01:12:30;10.10;99.90
14786;DHT22;7484;49.906;9.058;2023-04-01T01:15:05;10.10;99.90
14786;DHT22;7484;49.906;9.058;2023-04-01T01:17:44;10.00;99.90
14786;DHT22;7484;49.906;9.058;2023-04-01T01:20:48;10.10;99.90
14786;DHT22;7484;49.906;9.058;2023-04-01T01:26:44;10.20;99.90
14786;DHT22;7484;49.906;9.058;2023-04-01T01:29:30;10.10;99.90
14786;DHT22;7484;49.906;9.058;2023-04-01T01:32:04;10.20;99.90
14786;DHT22;7484;49.906;9.058;2023-04-01T01:34:36;10.10;99.90
14786;DHT22;7484;49.906;9.058;2023-04-01T01:37:12;10.10;99.90
14786;DHT22;7484;49.906;9.058;2023-04-01T01:39:42;10.10;99.90
14786;DHT22;7484;49.906;9.058;2023-04-01T01:42:11;10.10;99.90
14786;DHT22;7484;49.906;9.058;2023-04-01T01:44:40;10.10;99.90
14786;DHT22;7484;49.906;9.058;2023-04-01T01:47:09;10.00;99.90
14786;DHT22;7484;49.906;9.058;2023-04-01T01:49:36;10.10;99.90
14786;DHT22;7484;49.906;9.058;2023-04-01T01:52:04;10.10;99.90
14786;DHT22;7484;49.906;9.058;2023-04-01T01:54:32;10.10;99.90
14786;DHT22;7484;49.906;9.058;2023-04-01T01:57:04;10.10;99.90
14786;DHT22;7484;49.906;9.058;2023-04-01T01:59:33;10.10;99.90
14786;DHT22;7484;49.906;9.058;2023-04-01T02:02:02;10.10;99.90
14786;DHT22;7484;49.906;9.058;2023-04-01T02:04:34;10.10;99.90
14786;DHT22;7484;49.906;9.058;2023-04-01T02:07:03;10.10;99.90
14786;DHT22;7484;49.906;9.058;2023-04-01T02:09:32;10.10;99.90
14786;DHT22;7484;49.906;9.058;2023-04-01T02:12:02;10.10;99.90
14786;DHT22;7484;49.906;9.058;2023-04-01T02:14:39;10.10;99.90
14786;DHT22;7484;49.906;9.058;2023-04-01T02:17:10;10.10;99.90
14786;DHT22;7484;49.906;9.058;2023-04-01T02:19:39;10.10;99.90
14786;DHT22;7484;49.906;9.058;2023-04-01T02:22:10;10.10;99.90
14786;DHT22;7484;49.906;9.058;2023-04-01T02:24:40;10.10;99.90
14786;DHT22;7484;49.906;9.058;2023-04-01T02:27:09;10.10;99.90
14786;DHT22;7484;49.906;9.058;2023-04-01T02:29:36;10.20;99.90
14786;DHT22;7484;49.906;9.058;2023-04-01T02:32:07;10.20;99.90
14786;DHT22;7484;49.906;9.058;2023-04-01T02:34:35;10.10;99.90
14786;DHT22;7484;49.906;9.058;2023-04-01T02:37:02;10.20;99.90
14786;DHT22;7484;49.906;9.058;2023-04-01T02:39:29;10.10;99.90
14786;DHT22;7484;49.906;9.058;2023-04-01T02:41:57;10.10;99.90
14786;DHT22;7484;49.906;9.058;2023-04-01T02:44:24;10.20;99.90
14786;DHT22;7484;49.906;9.058;2023-04-01T02:46:51;10.20;99.90
14786;DHT22;7484;49.906;9.058;2023-04-01T02:49:18;10.20;99.90
14786;DHT22;7484;49.906;9.058;2023-04-01T02:51:46;10.20;99.90
14786;DHT22;7484;49.906;9.058;2023-04-01T02:54:13;10.20;99.90
14786;DHT22;7484;49.906;9.058;2023-04-01T02:56:40;10.20;99.90
14786;DHT22;7484;49.906;9.058;2023-04-01T02:59:08;10.20;99.90
14786;DHT22;7484;49.906;9.058;2023-04-01T03:01:35;10.20;99.90
14786;DHT22;7484;49.906;9.058;2023-04-01T03:04:02;10.10;99.90
14786;DHT22;7484;49.906;9.058;2023-04-01T03:06:29;11.10;99.90
14786;DHT22;7484;49.906;9.058;2023-04-01T03:08:55;10.10;99.90
14786;DHT22;7484;49.906;9.058;2023-04-01T03:11:22;10.10;99.90
14786;DHT22;7484;49.906;9.058;2023-04-01T03:13:49;10.10;99.90
14786;DHT22;7484;49.906;9.058;2023-04-01T03:16:18;10.10;99.90
14786;DHT22;7484;49.906;9.058;2023-04-01T03:18:44;10.20;99.90
14786;DHT22;7484;49.906;9.058;2023-04-01T03:21:16;10.20;99.90
14786;DHT22;7484;49.906;9.058;2023-04-01T03:23:43;10.20;99.90
14786;DHT22;7484;49.906;9.058;2023-04-01T03:26:10;10.20;99.90
14786;DHT22;7484;49.906;9.058;2023-04-01T03:28:37;10.10;99.90
14786;DHT22;7484;49.906;9.058;2023-04-01T03:31:04;10.10;99.90
14786;DHT22;7484;49.906;9.058;2023-04-01T03:33:39;10.10;99.90
14786;DHT22;7484;49.906;9.058;2023-04-01T03:36:06;10.20;99.90
14786;DHT22;7484;49.906;9.058;2023-04-01T03:38:33;10.20;99.90
14786;DHT22;7484;49.906;9.058;2023-04-01T03:41:00;10.20;99.90
14786;DHT22;7484;49.906;9.058;2023-04-01T03:43:28;10.20;99.90
14786;DHT22;7484;49.906;9.058;2023-04-01T03:45:55;10.20;99.90
14786;DHT22;7484;49.906;9.058;2023-04-01T03:48:23;10.20;99.90
14786;DHT22;7484;49.906;9.058;2023-04-01T03:50:52;10.20;99.90
14786;DHT22;7484;49.906;9.058;2023-04-01T03:53:19;10.20;99.90
14786;DHT22;7484;49.906;9.058;2023-04-01T03:55:46;10.20;99.90
14786;DHT22;7484;49.906;9.058;2023-04-01T03:58:14;10.20;99.90
14786;DHT22;7484;49.906;9.058;2023-04-01T04:00:41;10.20;99.90
14786;DHT22;7484;49.906;9.058;2023-04-01T04:03:09;10.20;99.90
14786;DHT22;7484;49.906;9.058;2023-04-01T04:05:36;10.20;99.90
14786;DHT22;7484;49.906;9.058;2023-04-01T04:08:04;10.20;99.90
14786;DHT22;7484;49.906;9.058;2023-04-01T04:10:31;10.20;99.90
14786;DHT22;7484;49.906;9.058;2023-04-01T04:12:58;10.20;99.90
14786;DHT22;7484;49.906;9.058;2023-04-01T04:15:28;10.20;99.90
14786;DHT22;7484;49.906;9.058;2023-04-01T04:17:54;10.20;99.90
14786;DHT22;7484;49.906;9.058;2023-04-01T04:20:21;10.20;99.90
14786;DHT22;7484;49.906;9.058;2023-04-01T04:22:48;10.20;99.90
14786;DHT22;7484;49.906;9.058;2023-04-01T04:25:16;10.20;99.90
14786;DHT22;7484;49.906;9.058;2023-04-01T04:27:44;10.20;99.90
14786;DHT22;7484;49.906;9.058;2023-04-01T04:30:12;10.20;99.90
14786;DHT22;7484;49.906;9.058;2023-04-01T04:32:39;10.10;99.90
14786;DHT22;7484;49.906;9.058;2023-04-01T04:35:08;10.10;99.90
14786;DHT22;7484;49.906;9.058;2023-04-01T04:37:35;10.10;99.90
14786;DHT22;7484;49.906;9.058;2023-04-01T04:40:02;10.10;99.90
14786;DHT22;7484;49.906;9.058;2023-04-01T04:42:31;10.10;99.90
14786;DHT22;7484;49.906;9.058;2023-04-01T04:45:08;10.10;99.90
14786;DHT22;7484;49.906;9.058;2023-04-01T04:47:38;10.10;99.90
14786;DHT22;7484;49.906;9.058;2023-04-01T04:50:06;10.10;99.90
14786;DHT22;7484;49.906;9.058;2023-04-01T04:52:33;10.10;99.90
14786;DHT22;7484;49.906;9.058;2023-04-01T04:54:59;10.00;99.90
14786;DHT22;7484;49.906;9.058;2023-04-01T04:57:26;10.10;99.90
14786;DHT22;7484;49.906;9.058;2023-04-01T04:59:56;10.10;99.90
14786;DHT22;7484;49.906;9.058;2023-04-01T05:02:51;10.10;99.90
14786;DHT22;7484;49.906;9.058;2023-04-01T05:05:17;10.00;99.90
14786;DHT22;7484;49.906;9.058;2023-04-01T05:07:45;10.10;99.90
14786;DHT22;7484;49.906;9.058;2023-04-01T05:10:12;10.00;99.90
14786;DHT22;7484;49.906;9.058;2023-04-01T05:12:39;10.00;99.90
14786;DHT22;7484;49.906;9.058;2023-04-01T05:15:10;10.00;99.90
14786;DHT22;7484;49.906;9.058;2023-04-01T05:17:38;10.00;99.90
14786;DHT22;7484;49.906;9.058;2023-04-01T05:20:06;10.00;99.90
14786;DHT22;7484;49.906;9.058;2023-04-01T05:22:33;9.90;99.90
14786;DHT22;7484;49.906;9.058;2023-04-01T05:25:00;10.00;99.90
14786;DHT22;7484;49.906;9.058;2023-04-01T05:27:27;10.00;99.90
14786;DHT22;7484;49.906;9.058;2023-04-01T05:29:54;10.00;99.90
14786;DHT22;7484;49.906;9.058;2023-04-01T05:32:39;10.10;99.90
14786;DHT22;7484;49.906;9.058;2023-04-01T05:35:07;10.10;99.90
14786;DHT22;7484;49.906;9.058;2023-04-01T05:37:34;10.10;99.90
14786;DHT22;7484;49.906;9.058;2023-04-01T05:40:03;10.10;99.90
14786;DHT22;7484;49.906;9.058;2023-04-01T05:42:31;9.90;99.90
14786;DHT22;7484;49.906;9.058;2023-04-01T05:44:57;9.90;99.90
14786;DHT22;7484;49.906;9.058;2023-04-01T05:48:01;9.80;99.90
14786;DHT22;7484;49.906;9.058;2023-04-01T05:50:34;9.80;99.90
14786;DHT22;7484;49.906;9.058;2023-04-01T05:53:02;9.70;99.90
14786;DHT22;7484;49.906;9.058;2023-04-01T05:55:28;9.60;99.90
14786;DHT22;7484;49.906;9.058;2023-04-01T05:57:56;9.60;99.90
14786;DHT22;7484;49.906;9.058;2023-04-01T06:00:23;9.60;99.90
14786;DHT22;7484;49.906;9.058;2023-04-01T06:02:50;9.50;99.90
14786;DHT22;7484;49.906;9.058;2023-04-01T06:05:21;9.50;99.90
14786;DHT22;7484;49.906;9.058;2023-04-01T06:07:48;9.40;99.90
14786;DHT22;7484;49.906;9.058;2023-04-01T06:10:18;9.40;99.90
14786;DHT22;7484;49.906;9.058;2023-04-01T06:12:52;9.30;99.90
14786;DHT22;7484;49.906;9.058;2023-04-01T06:15:28;9.30;99.90
14786;DHT22;7484;49.906;9.058;2023-04-01T06:18:10;9.30;99.90
14786;DHT22;7484;49.906;9.058;2023-04-01T06:20:47;9.30;99.90
14786;DHT22;7484;49.906;9.058;2023-04-01T06:23:28;9.20;99.90
14786;DHT22;7484;49.906;9.058;2023-04-01T06:26:10;9.20;99.90
14786;DHT22;7484;49.906;9.058;2023-04-01T06:28:59;9.20;99.90
14786;DHT22;7484;49.906;9.058;2023-04-01T06:31:43;9.30;99.90
14786;DHT22;7484;49.906;9.058;2023-04-01T06:34:49;9.30;99.90
14786;DHT22;7484;49.906;9.058;2023-04-01T06:37:28;9.20;99.90
14786;DHT22;7484;49.906;9.058;2023-04-01T06:40:17;9.30;99.90
14786;DHT22;7484;49.906;9.058;2023-04-01T06:42:55;9.30;99.90
14786;DHT22;7484;49.906;9.058;2023-04-01T06:45:57;9.20;99.90
14786;DHT22;7484;49.906;9.058;2023-04-01T06:49:01;9.30;99.90
14786;DHT22;7484;49.906;9.058;2023-04-01T06:52:13;9.30;99.90
14786;DHT22;7484;49.906;9.058;2023-04-01T06:55:17;9.30;99.90
14786;DHT22;7484;49.906;9.058;2023-04-01T06:58:19;9.30;99.90
14786;DHT22;7484;49.906;9.058;2023-04-01T07:00:50;9.30;99.90
14786;DHT22;7484;49.906;9.058;2023-04-01T07:03:21;9.30;99.90
14786;DHT22;7484;49.906;9.058;2023-04-01T07:05:49;9.30;99.90
14786;DHT22;7484;49.906;9.058;2023-04-01T07:08:19;9.30;99.90
14786;DHT22;7484;49.906;9.058;2023-04-01T07:10:52;9.30;99.90
14786;DHT22;7484;49.906;9.058;2023-04-01T07:13:54;9.30;99.90
14786;DHT22;7484;49.906;9.058;2023-04-01T07:16:25;9.40;99.90
14786;DHT22;7484;49.906;9.058;2023-04-01T07:18:57;9.30;99.90
14786;DHT22;7484;49.906;9.058;2023-04-01T07:21:36;9.30;99.90
14786;DHT22;7484;49.906;9.058;2023-04-01T07:24:19;9.30;99.90
14786;DHT22;7484;49.906;9.058;2023-04-01T07:27:00;9.30;99.90
14786;DHT22;7484;49.906;9.058;2023-04-01T07:29:30;9.40;99.90
14786;DHT22;7484;49.906;9.058;2023-04-01T07:32:20;9.40;99.90
14786;DHT22;7484;49.906;9.058;2023-04-01T07:35:09;9.40;99.90
14786;DHT22;7484;49.906;9.058;2023-04-01T07:37:47;9.50;99.90
14786;DHT22;7484;49.906;9.058;2023-04-01T07:40:27;9.40;99.90
14786;DHT22;7484;49.906;9.058;2023-04-01T07:43:11;9.50;99.90
14786;DHT22;7484;49.906;9.058;2023-04-01T07:45:52;9.50;99.90
14786;DHT22;7484;49.906;9.058;2023-04-01T07:48:26;9.50;99.90
14786;DHT22;7484;49.906;9.058;2023-04-01T07:51:02;9.50;99.90
14786;DHT22;7484;49.906;9.058;2023-04-01T07:53:36;9.40;99.90
14786;DHT22;7484;49.906;9.058;2023-04-01T07:56:07;9.40;99.90
14786;DHT22;7484;49.906;9.058;2023-04-01T07:58:49;9.40;99.90
14786;DHT22;7484;49.906;9.058;2023-04-01T08:01:42;9.40;99.90
14786;DHT22;7484;49.906;9.058;2023-04-01T08:04:25;9.40;99.90
14786;DHT22;7484;49.906;9.058;2023-04-01T08:06:58;9.40;99.90
14786;DHT22;7484;49.906;9.058;2023-04-01T08:09:35;9.40;99.90
14786;DHT22;7484;49.906;9.058;2023-04-01T08:12:35;9.50;99.90
14786;DHT22;7484;49.906;9.058;2023-04-01T08:15:27;9.60;99.90
14786;DHT22;7484;49.906;9.058;2023-04-01T08:18:17;9.70;99.90
14786;DHT22;7484;49.906;9.058;2023-04-01T08:20:51;9.60;99.90
14786;DHT22;7484;49.906;9.058;2023-04-01T08:23:21;9.60;99.90
14786;DHT22;7484;49.906;9.058;2023-04-01T08:25:53;9.70;99.90
14786;DHT22;7484;49.906;9.058;2023-04-01T08:28:30;9.70;99.90
14786;DHT22;7484;49.906;9.058;2023-04-01T08:31:05;9.70;99.90
14786;DHT22;7484;49.906;9.058;2023-04-01T08:33:33;9.70;99.90
14786;DHT22;7484;49.906;9.058;2023-04-01T08:36:06;9.70;99.90
14786;DHT22;7484;49.906;9.058;2023-04-01T08:38:40;9.80;99.90
14786;DHT22;7484;49.906;9.058;2023-04-01T08:41:22;9.90;99.90
14786;DHT22;7484;49.906;9.058;2023-04-01T08:44:43;9.90;99.90
14786;DHT22;7484;49.906;9.058;2023-04-01T08:50:41;9.90;99.90
14786;DHT22;7484;49.906;9.058;2023-04-01T08:53:35;10.00;99.90
14786;DHT22;7484;49.906;9.058;2023-04-01T08:56:14;10.10;99.90
14786;DHT22;7484;49.906;9.058;2023-04-01T08:59:14;10.10;99.90
14786;DHT22;7484;49.906;9.058;2023-04-01T09:01:59;10.00;99.90
14786;DHT22;7484;49.906;9.058;2023-04-01T09:08:03;10.00;99.90
14786;DHT22;7484;49.906;9.058;2023-04-01T09:10:53;10.00;99.90
14786;DHT22;7484;49.906;9.058;2023-04-01T09:13:59;9.90;99.90
14786;DHT22;7484;49.906;9.058;2023-04-01T09:16:45;10.00;99.90
14786;DHT22;7484;49.906;9.058;2023-04-01T09:19:28;10.10;99.90
14786;DHT22;7484;49.906;9.058;2023-04-01T09:22:18;10.10;99.90
14786;DHT22;7484;49.906;9.058;2023-04-01T09:25:21;10.20;99.90
14786;DHT22;7484;49.906;9.058;2023-04-01T09:27:56;10.30;99.90
14786;DHT22;7484;49.906;9.058;2023-04-01T09:36:45;10.20;99.90
14786;DHT22;7484;49.906;9.058;2023-04-01T09:39:27;10.20;99.90
14786;DHT22;7484;49.906;9.058;2023-04-01T09:42:14;10.30;99.90
14786;DHT22;7484;49.906;9.058;2023-04-01T09:44:58;10.40;99.90
14786;DHT22;7484;49.906;9.058;2023-04-01T09:47:40;10.50;99.90
14786;DHT22;7484;49.906;9.058;2023-04-01T09:50:30;10.50;99.90
14786;DHT22;7484;49.906;9.058;2023-04-01T09:53:11;10.60;99.90
14786;DHT22;7484;49.906;9.058;2023-04-01T09:56:01;10.50;99.90
14786;DHT22;7484;49.906;9.058;2023-04-01T10:02:34;10.40;99.90
14786;DHT22;7484;49.906;9.058;2023-04-01T10:05:50;10.50;99.90
14786;DHT22;7484;49.906;9.058;2023-04-01T10:08:50;10.40;99.90
14786;DHT22;7484;49.906;9.058;2023-04-01T10:12:00;10.50;99.90
14786;DHT22;7484;49.906;9.058;2023-04-01T10:17:56;10.40;99.90
14786;DHT22;7484;49.906;9.058;2023-04-01T10:20:55;10.40;99.90
14786;DHT22;7484;49.906;9.058;2023-04-01T10:23:51;10.30;99.90
14786;DHT22;7484;49.906;9.058;2023-04-01T10:33:26;10.60;99.90
14786;DHT22;7484;49.906;9.058;2023-04-01T10:36:12;10.50;99.90
14786;DHT22;7484;49.906;9.058;2023-04-01T10:39:00;10.30;99.90
14786;DHT22;7484;49.906;9.058;2023-04-01T10:42:15;10.30;99.90
14786;DHT22;7484;49.906;9.058;2023-04-01T10:45:54;10.30;99.90
14786;DHT22;7484;49.906;9.058;2023-04-01T10:51:31;10.30;99.90
14786;DHT22;7484;49.906;9.058;2023-04-01T10:54:17;10.30;99.90
14786;DHT22;7484;49.906;9.058;2023-04-01T10:57:18;10.50;99.90
14786;DHT22;7484;49.906;9.058;2023-04-01T11:00:44;10.50;99.90
14786;DHT22;7484;49.906;9.058;2023-04-01T11:04:16;10.50;99.90
14786;DHT22;7484;49.906;9.058;2023-04-01T11:10:56;10.60;99.90
14786;DHT22;7484;49.906;9.058;2023-04-01T11:26:02;10.80;99.90
14786;DHT22;7484;49.906;9.058;2023-04-01T11:29:03;10.80;99.90
14786;DHT22;7484;49.906;9.058;2023-04-01T11:31:44;10.80;99.90
14786;DHT22;7484;49.906;9.058;2023-04-01T11:34:31;10.90;99.90
14786;DHT22;7484;49.906;9.058;2023-04-01T11:37:08;10.90;99.90
14786;DHT22;7484;49.906;9.058;2023-04-01T11:39:59;10.80;99.90
14786;DHT22;7484;49.906;9.058;2023-04-01T11:43:01;10.90;99.90
14786;DHT22;7484;49.906;9.058;2023-04-01T11:46:10;11.00;99.90
14786;DHT22;7484;49.906;9.058;2023-04-01T11:48:48;11.00;99.90
14786;DHT22;7484;49.906;9.058;2023-04-01T11:54:24;11.40;99.90
14786;DHT22;7484;49.906;9.058;2023-04-01T11:57:06;11.30;99.90
14786;DHT22;7484;49.906;9.058;2023-04-01T11:59:46;11.40;99.90
14786;DHT22;7484;49.906;9.058;2023-04-01T12:02:23;11.40;99.90
14786;DHT22;7484;49.906;9.058;2023-04-01T12:08:02;11.30;99.90
14786;DHT22;7484;49.906;9.058;2023-04-01T12:10:39;11.30;99.90
14786;DHT22;7484;49.906;9.058;2023-04-01T12:13:15;11.40;99.90
14786;DHT22;7484;49.906;9.058;2023-04-01T12:15:54;11.50;99.90
14786;DHT22;7484;49.906;9.058;2023-04-01T12:18:31;11.50;99.90
14786;DHT22;7484;49.906;9.058;2023-04-01T12:21:03;11.30;99.90
14786;DHT22;7484;49.906;9.058;2023-04-01T12:23:52;11.40;99.90
14786;DHT22;7484;49.906;9.058;2023-04-01T12:26:43;11.50;99.90
14786;DHT22;7484;49.906;9.058;2023-04-01T12:29:35;11.50;99.90
14786;DHT22;7484;49.906;9.058;2023-04-01T12:32:15;11.40;99.90
14786;DHT22;7484;49.906;9.058;2023-04-01T12:34:54;11.30;99.90
14786;DHT22;7484;49.906;9.058;2023-04-01T12:37:31;11.30;99.90
14786;DHT22;7484;49.906;9.058;2023-04-01T12:40:16;11.30;99.90
14786;DHT22;7484;49.906;9.058;2023-04-01T12:42:56;11.30;99.90
14786;DHT22;7484;49.906;9.058;2023-04-01T12:45:30;11.30;99.90
14786;DHT22;7484;49.906;9.058;2023-04-01T12:48:23;11.30;99.90
14786;DHT22;7484;49.906;9.058;2023-04-01T12:51:05;11.30;99.90
14786;DHT22;7484;49.906;9.058;2023-04-01T12:53:48;11.40;99.90
14786;DHT22;7484;49.906;9.058;2023-04-01T12:56:22;11.30;99.90
14786;DHT22;7484;49.906;9.058;2023-04-01T12:59:13;11.30;99.90
14786;DHT22;7484;49.906;9.058;2023-04-01T13:02:01;11.20;99.90
14786;DHT22;7484;49.906;9.058;2023-04-01T13:04:51;11.20;99.90
14786;DHT22;7484;49.906;9.058;2023-04-01T13:07:30;11.30;99.90
14786;DHT22;7484;49.906;9.058;2023-04-01T13:10:07;11.40;99.90
14786;DHT22;7484;49.906;9.058;2023-04-01T13:13:14;11.40;99.90
14786;DHT22;7484;49.906;9.058;2023-04-01T13:15:45;11.40;99.90
14786;DHT22;7484;49.906;9.058;2023-04-01T13:18:25;11.50;99.90
14786;DHT22;7484;49.906;9.058;2023-04-01T13:21:01;11.50;99.90
14786;DHT22;7484;49.906;9.058;2023-04-01T13:23:48;11.50;99.90
14786;DHT22;7484;49.906;9.058;2023-04-01T13:26:22;11.50;99.90
14786;DHT22;7484;49.906;9.058;2023-04-01T13:28:56;11.60;99.90
14786;DHT22;7484;49.906;9.058;2023-04-01T13:31:41;11.60;99.90
14786;DHT22;7484;49.906;9.058;2023-04-01T13:34:25;11.60;99.90
14786;DHT22;7484;49.906;9.058;2023-04-01T13:37:02;11.80;99.90
14786;DHT22;7484;49.906;9.058;2023-04-01T13:39:46;11.80;99.90
14786;DHT22;7484;49.906;9.058;2023-04-01T13:42:21;11.80;99.90
14786;DHT22;7484;49.906;9.058;2023-04-01T13:44:54;11.80;99.90
14786;DHT22;7484;49.906;9.058;2023-04-01T13:50:52;11.70;99.90
14786;DHT22;7484;49.906;9.058;2023-04-01T13:53:46;11.60;99.90
14786;DHT22;7484;49.906;9.058;2023-04-01T13:56:29;11.40;99.90
14786;DHT22;7484;49.906;9.058;2023-04-01T13:59:12;11.30;99.90
14786;DHT22;7484;49.906;9.058;2023-04-01T14:01:52;11.20;99.90
14786;DHT22;7484;49.906;9.058;2023-04-01T14:04:30;11.10;99.90
14786;DHT22;7484;49.906;9.058;2023-04-01T14:07:16;11.10;99.90
14786;DHT22;7484;49.906;9.058;2023-04-01T14:12:42;11.10;99.90
14786;DHT22;7484;49.906;9.058;2023-04-01T14:15:27;11.20;99.90
14786;DHT22;7484;49.906;9.058;2023-04-01T14:18:16;11.30;99.90
14786;DHT22;7484;49.906;9.058;2023-04-01T14:20:50;11.50;99.90
14786;DHT22;7484;49.906;9.058;2023-04-01T14:23:37;11.50;99.90
14786;DHT22;7484;49.906;9.058;2023-04-01T14:26:22;11.60;99.90
14786;DHT22;7484;49.906;9.058;2023-04-01T14:28:55;11.70;99.90
14786;DHT22;7484;49.906;9.058;2023-04-01T14:31:44;11.70;99.90
14786;DHT22;7484;49.906;9.058;2023-04-01T14:34:26;11.70;99.90
14786;DHT22;7484;49.906;9.058;2023-04-01T14:37:13;11.70;99.90
14786;DHT22;7484;49.906;9.058;2023-04-01T14:40:14;11.70;99.90
14786;DHT22;7484;49.906;9.058;2023-04-01T14:42:59;11.50;99.90
14786;DHT22;7484;49.906;9.058;2023-04-01T14:45:46;11.50;99.90
14786;DHT22;7484;49.906;9.058;2023-04-01T14:48:26;11.70;99.90
14786;DHT22;7484;49.906;9.058;2023-04-01T14:50:55;11.90;99.90
14786;DHT22;7484;49.906;9.058;2023-04-01T14:53:29;12.00;99.90
14786;DHT22;7484;49.906;9.058;2023-04-01T14:55:59;12.20;99.90
14786;DHT22;7484;49.906;9.058;2023-04-01T14:58:40;12.10;99.90
14786;DHT22;7484;49.906;9.058;2023-04-01T15:01:17;12.00;99.90
14786;DHT22;7484;49.906;9.058;2023-04-01T15:03:55;11.90;99.90
14786;DHT22;7484;49.906;9.058;2023-04-01T15:06:39;11.90;99.90
14786;DHT22;7484;49.906;9.058;2023-04-01T15:09:17;11.90;99.90
14786;DHT22;7484;49.906;9.058;2023-04-01T15:11:57;11.80;99.90
14786;DHT22;7484;49.906;9.058;2023-04-01T15:17:28;11.90;99.90
14786;DHT22;7484;49.906;9.058;2023-04-01T15:20:15;11.80;99.90
14786;DHT22;7484;49.906;9.058;2023-04-01T15:22:57;11.80;99.90
14786;DHT22;7484;49.906;9.058;2023-04-01T15:25:38;11.80;99.90
14786;DHT22;7484;49.906;9.058;2023-04-01T15:28:17;11.80;99.90
14786;DHT22;7484;49.906;9.058;2023-04-01T15:30:52;11.70;99.90
14786;DHT22;7484;49.906;9.058;2023-04-01T15:33:33;11.60;99.90
14786;DHT22;7484;49.906;9.058;2023-04-01T15:36:12;11.60;99.90
14786;DHT22;7484;49.906;9.058;2023-04-01T15:38:47;11.60;99.90
14786;DHT22;7484;49.906;9.058;2023-04-01T15:41:21;11.60;99.90
14786;DHT22;7484;49.906;9.058;2023-04-01T15:43:50;11.60;99.90
14786;DHT22;7484;49.906;9.058;2023-04-01T15:46:30;11.60;99.90
14786;DHT22;7484;49.906;9.058;2023-04-01T15:49:09;11.70;99.90
14786;DHT22;7484;49.906;9.058;2023-04-01T15:51:53;11.70;99.90
14786;DHT22;7484;49.906;9.058;2023-04-01T15:57:35;11.50;99.90
14786;DHT22;7484;49.906;9.058;2023-04-01T16:00:21;11.50;99.90
14786;DHT22;7484;49.906;9.058;2023-04-01T16:02:52;11.40;99.90
14786;DHT22;7484;49.906;9.058;2023-04-01T16:05:37;11.30;99.90
14786;DHT22;7484;49.906;9.058;2023-04-01T16:08:31;11.30;99.90
14786;DHT22;7484;49.906;9.058;2023-04-01T16:11:12;11.30;99.90
14786;DHT22;7484;49.906;9.058;2023-04-01T16:13:51;11.30;99.90
14786;DHT22;7484;49.906;9.058;2023-04-01T16:16:31;11.30;99.90
14786;DHT22;7484;49.906;9.058;2023-04-01T16:19:24;11.30;99.90
14786;DHT22;7484;49.906;9.058;2023-04-01T16:22:00;11.30;99.90
14786;DHT22;7484;49.906;9.058;2023-04-01T16:24:33;11.20;99.90
14786;DHT22;7484;49.906;9.058;2023-04-01T16:27:02;11.30;99.90
14786;DHT22;7484;49.906;9.058;2023-04-01T16:29:40;11.20;99.90
14786;DHT22;7484;49.906;9.058;2023-04-01T16:32:27;11.30;99.90
14786;DHT22;7484;49.906;9.058;2023-04-01T16:35:03;11.30;99.90
14786;DHT22;7484;49.906;9.058;2023-04-01T16:37:35;11.30;99.90
14786;DHT22;7484;49.906;9.058;2023-04-01T16:40:13;11.30;99.90
14786;DHT22;7484;49.906;9.058;2023-04-01T16:42:47;11.20;99.90
14786;DHT22;7484;49.906;9.058;2023-04-01T16:45:25;11.30;99.90
14786;DHT22;7484;49.906;9.058;2023-04-01T16:47:55;11.30;99.90
14786;DHT22;7484;49.906;9.058;2023-04-01T16:50:23;11.30;99.90
14786;DHT22;7484;49.906;9.058;2023-04-01T16:53:02;11.40;99.90
14786;DHT22;7484;49.906;9.058;2023-04-01T16:55:44;11.30;99.90
14786;DHT22;7484;49.906;9.058;2023-04-01T16:58:19;11.20;99.90
14786;DHT22;7484;49.906;9.058;2023-04-01T17:00:50;11.20;99.90
14786;DHT22;7484;49.906;9.058;2023-04-01T17:03:22;11.20;99.90
14786;DHT22;7484;49.906;9.058;2023-04-01T17:06:02;11.20;99.90
14786;DHT22;7484;49.906;9.058;2023-04-01T17:08:39;11.20;99.90
14786;DHT22;7484;49.906;9.058;2023-04-01T17:11:12;11.30;99.90
14786;DHT22;7484;49.906;9.058;2023-04-01T17:13:46;11.30;99.90
14786;DHT22;7484;49.906;9.058;2023-04-01T17:16:32;11.40;99.90
14786;DHT22;7484;49.906;9.058;2023-04-01T17:19:13;11.30;99.90
14786;DHT22;7484;49.906;9.058;2023-04-01T17:21:49;11.30;99.90
14786;DHT22;7484;49.906;9.058;2023-04-01T17:24:35;11.20;99.90
14786;DHT22;7484;49.906;9.058;2023-04-01T17:27:16;11.20;99.90
14786;DHT22;7484;49.906;9.058;2023-04-01T17:30:05;11.10;99.90
14786;DHT22;7484;49.906;9.058;2023-04-01T17:32:50;11.00;99.90
14786;DHT22;7484;49.906;9.058;2023-04-01T17:35:27;11.10;99.90
14786;DHT22;7484;49.906;9.058;2023-04-01T17:38:05;11.10;99.90
14786;DHT22;7484;49.906;9.058;2023-04-01T17:40:50;11.10;99.90
14786;DHT22;7484;49.906;9.058;2023-04-01T17:43:25;11.10;99.90
14786;DHT22;7484;49.906;9.058;2023-04-01T17:45:56;11.10;99.90
14786;DHT22;7484;49.906;9.058;2023-04-01T17:48:38;11.10;99.90
14786;DHT22;7484;49.906;9.058;2023-04-01T17:51:19;11.10;99.90
14786;DHT22;7484;49.906;9.058;2023-04-01T17:53:56;11.10;99.90
14786;DHT22;7484;49.906;9.058;2023-04-01T17:56:35;11.00;99.90
14786;DHT22;7484;49.906;9.058;2023-04-01T17:59:12;11.00;99.90
14786;DHT22;7484;49.906;9.058;2023-04-01T18:01:46;10.90;99.90
14786;DHT22;7484;49.906;9.058;2023-04-01T18:04:40;10.90;99.90